Time;durP1;ratioP1;P1;durP2;ratioP2;P2;SDS_P1;SDS_P2;PMS_P1;PMS_P2;Temp;Humidity;BMP_temperature;BMP_pressure;BME280_temperature;BME280_humidity;BME280_pressure;Samples;Min_cycle;Max_cycle;Signal;HPM_P1;HPM_P2
2022/11/28 00:00:57;;;;;;;0.90;0.80;;;6.60;99.90;;;;;;5074675;28;20194;-81
2022/11/28 00:03:24;;;;;;;1.67;0.80;;;6.60;99.90;;;;;;5075550;28;20674;-79
2022/11/28 00:05:51;;;;;;;1.63;1.50;;;6.70;99.90;;;;;;5074541;28;20189;-80
2022/11/28 00:08:19;;;;;;;2.05;1.95;;;6.70;99.90;;;;;;5075015;28;20206;-80
2022/11/28 00:10:46;;;;;;;0.93;0.93;;;6.70;99.90;;;;;;5074646;28;20224;-81
2022/11/28 00:13:13;;;;;;;1.33;0.95;;;6.70;99.90;;;;;;5077349;28;20620;-81
2022/11/28 00:15:41;;;;;;;2.35;2.15;;;6.70;99.90;;;;;;5075052;28;20194;-78
2022/11/28 00:18:09;;;;;;;0.50;0.50;;;6.70;99.90;;;;;;5079469;28;20194;-80
2022/11/28 00:20:36;;;;;;;0.88;0.88;;;6.80;99.90;;;;;;5078311;28;20210;-79
2022/11/28 00:23:03;;;;;;;0.88;0.88;;;6.70;99.90;;;;;;5079082;28;20280;-81
2022/11/28 00:25:29;;;;;;;1.63;1.25;;;6.70;99.90;;;;;;5077579;28;20201;-81
2022/11/28 00:27:56;;;;;;;0.98;0.98;;;6.80;99.90;;;;;;5078676;28;20197;-81
2022/11/28 00:30:23;;;;;;;2.90;1.42;;;6.80;99.90;;;;;;5078542;28;20212;-80
2022/11/28 00:32:51;;;;;;;1.27;1.17;;;6.80;99.90;;;;;;5078532;28;20198;-80
2022/11/28 00:35:18;;;;;;;2.28;1.67;;;6.80;99.90;;;;;;5076879;28;20727;-80
2022/11/28 00:37:45;;;;;;;1.80;1.67;;;6.80;99.90;;;;;;5078217;28;20198;-80
2022/11/28 00:40:11;;;;;;;1.98;1.40;;;6.90;99.90;;;;;;5077790;28;20206;-79
2022/11/28 00:42:38;;;;;;;1.70;1.60;;;6.90;99.90;;;;;;5078095;28;20194;-80
2022/11/28 00:45:06;;;;;;;1.58;1.48;;;6.90;99.90;;;;;;5077577;28;20192;-79
2022/11/28 00:47:32;;;;;;;1.15;1.05;;;6.90;99.90;;;;;;5078034;28;20684;-79
2022/11/28 00:50:01;;;;;;;0.80;0.80;;;6.90;99.90;;;;;;5078325;28;20206;-81
2022/11/28 00:52:27;;;;;;;1.48;1.38;;;6.90;99.90;;;;;;5071468;28;20276;-81
2022/11/28 00:54:54;;;;;;;2.47;2.28;;;6.80;99.90;;;;;;5064521;28;20278;-80
2022/11/28 00:57:21;;;;;;;3.10;2.83;;;6.90;99.90;;;;;;5065866;28;20190;-80
2022/11/28 00:59:48;;;;;;;1.17;0.88;;;6.90;99.90;;;;;;5058327;28;20302;-80
2022/11/28 01:02:15;;;;;;;1.08;0.98;;;6.90;99.90;;;;;;5057679;28;20191;-82
2022/11/28 01:04:41;;;;;;;1.70;1.10;;;6.90;99.90;;;;;;5057554;28;20198;-81
2022/11/28 01:07:10;;;;;;;0.50;0.50;;;6.90;99.90;;;;;;5057650;28;20620;-81
2022/11/28 01:09:36;;;;;;;0.85;0.85;;;6.90;99.90;;;;;;5057585;28;20588;-81
2022/11/28 01:12:04;;;;;;;0.50;0.40;;;7.00;99.90;;;;;;5057713;28;20190;-79
2022/11/28 01:14:31;;;;;;;2.47;2.38;;;7.00;99.90;;;;;;5057475;28;20198;-80
2022/11/28 01:16:57;;;;;;;1.95;1.70;;;7.00;99.90;;;;;;5056036;28;20205;-81
2022/11/28 01:19:24;;;;;;;0.50;0.40;;;7.10;99.90;;;;;;5056972;28;20287;-81
2022/11/28 01:21:51;;;;;;;0.50;0.40;;;7.10;99.90;;;;;;5056748;28;20204;-80
2022/11/28 01:24:19;;;;;;;1.80;1.48;;;7.10;99.90;;;;;;5055857;28;20201;-81
2022/11/28 01:26:46;;;;;;;0.70;0.70;;;7.10;99.90;;;;;;5057618;28;20195;-81
2022/11/28 01:29:13;;;;;;;0.90;0.50;;;7.20;99.90;;;;;;5056712;28;20225;-81
2022/11/28 01:31:41;;;;;;;1.08;0.88;;;7.20;99.90;;;;;;5057702;28;20190;-80
2022/11/28 01:34:07;;;;;;;1.40;1.08;;;7.20;99.90;;;;;;5056483;28;20198;-81
2022/11/28 01:36:34;;;;;;;1.13;0.80;;;7.10;99.90;;;;;;5057920;28;20710;-80
2022/11/28 01:39:01;;;;;;;4.75;2.08;;;7.10;99.90;;;;;;5057574;28;20214;-80
2022/11/28 01:41:29;;;;;;;2.17;1.42;;;7.10;99.90;;;;;;5056983;28;20269;-81
2022/11/28 01:44:06;;;;;;;1.65;1.42;;;7.20;99.90;;;;;;5059245;28;20194;-80
2022/11/28 01:46:33;;;;;;;0.70;0.65;;;7.20;99.90;;;;;;5078255;28;20193;-82
2022/11/28 01:49:05;;;;;;;0.80;0.60;;;7.20;99.90;;;;;;5077259;28;20230;-82
2022/11/28 01:51:33;;;;;;;1.80;1.55;;;7.20;99.90;;;;;;5078306;28;20171;-81
2022/11/28 01:54:00;;;;;;;1.00;0.82;;;7.20;99.90;;;;;;5057107;28;20190;-80
2022/11/28 01:56:31;;;;;;;0.68;0.57;;;7.20;99.90;;;;;;5056845;28;20225;-80
2022/11/28 01:59:02;;;;;;;1.27;1.17;;;7.20;99.90;;;;;;5056688;28;20309;-81
2022/11/28 02:01:29;;;;;;;1.95;0.70;;;7.20;99.90;;;;;;5056890;28;20185;-81
2022/11/28 02:03:58;;;;;;;0.52;0.45;;;7.20;99.90;;;;;;5056214;28;20572;-81
2022/11/28 02:06:27;;;;;;;2.20;1.40;;;7.20;99.90;;;;;;5057679;28;20222;-80
2022/11/28 02:08:55;;;;;;;0.73;0.73;;;7.20;99.90;;;;;;5056316;28;20222;-81
2022/11/28 02:11:51;;;;;;;3.42;1.95;;;7.20;99.90;;;;;;5056549;28;20191;-81
2022/11/28 02:14:29;;;;;;;3.00;1.35;;;7.20;99.90;;;;;;5055564;28;20254;-79
2022/11/28 02:17:06;;;;;;;0.80;0.80;;;7.20;99.90;;;;;;5055639;28;20182;-80
2022/11/28 02:20:10;;;;;;;2.60;2.10;;;7.20;99.90;;;;;;5055880;28;20215;-80
2022/11/28 02:22:44;;;;;;;7.22;1.52;;;7.10;99.90;;;;;;5054071;28;20194;-78
2022/11/28 02:25:40;;;;;;;0.60;0.60;;;7.10;99.90;;;;;;5055492;28;20260;-81
2022/11/28 02:28:43;;;;;;;1.15;1.05;;;7.10;99.90;;;;;;5056761;28;20182;-81
2022/11/28 02:31:24;;;;;;;0.70;0.70;;;7.10;99.90;;;;;;5057027;28;20552;-81
2022/11/28 02:33:55;;;;;;;0.98;0.70;;;7.10;99.90;;;;;;5056018;28;20198;-79
2022/11/28 02:36:30;;;;;;;2.78;2.55;;;7.10;99.90;;;;;;5056214;28;20186;-81
2022/11/28 02:39:04;;;;;;;3.15;2.05;;;7.10;99.90;;;;;;5057058;28;20221;-81
2022/11/28 02:41:36;;;;;;;3.45;1.45;;;7.20;99.90;;;;;;5056675;28;20540;-81
2022/11/28 02:44:11;;;;;;;4.60;2.05;;;7.20;99.90;;;;;;5055282;28;20204;-81
2022/11/28 02:46:44;;;;;;;0.60;0.60;;;7.20;99.90;;;;;;5056052;28;20174;-79
2022/11/28 02:49:19;;;;;;;3.63;2.58;;;7.20;99.90;;;;;;5056584;28;20226;-80
2022/11/28 02:51:51;;;;;;;0.60;0.50;;;7.20;99.90;;;;;;5055736;28;20671;-81
2022/11/28 02:54:20;;;;;;;2.92;1.67;;;7.20;99.90;;;;;;5055392;28;20179;-80
2022/11/28 02:56:49;;;;;;;3.92;0.88;;;7.20;99.90;;;;;;5055616;28;20198;-81
2022/11/28 02:59:32;;;;;;;2.92;2.70;;;7.10;99.90;;;;;;5056392;28;20229;-78
2022/11/28 03:02:00;;;;;;;2.20;1.60;;;7.10;99.90;;;;;;5055701;28;20183;-80
2022/11/28 03:04:34;;;;;;;1.05;0.90;;;7.00;99.90;;;;;;5054471;28;20202;-80
2022/11/28 03:07:09;;;;;;;1.25;1.15;;;7.00;99.90;;;;;;5055985;28;20641;-80
2022/11/28 03:10:10;;;;;;;0.65;0.65;;;7.00;99.90;;;;;;5055806;28;20218;-81
2022/11/28 03:12:50;;;;;;;0.90;0.90;;;7.00;99.90;;;;;;5055798;28;20292;-77
2022/11/28 03:15:21;;;;;;;0.50;0.50;;;7.00;99.90;;;;;;5052789;28;20210;-80
2022/11/28 03:17:56;;;;;;;1.58;1.23;;;6.90;99.90;;;;;;5056126;28;20282;-78
2022/11/28 03:20:31;;;;;;;0.70;0.65;;;6.90;99.90;;;;;;5055885;28;20229;-81
2022/11/28 03:23:09;;;;;;;2.25;2.15;;;6.90;99.90;;;;;;5055735;28;20186;-79
2022/11/28 03:25:43;;;;;;;9.18;2.75;;;6.80;99.90;;;;;;5054915;28;20277;-79
2022/11/28 03:28:17;;;;;;;2.35;1.90;;;6.80;99.90;;;;;;5055449;28;20247;-80
2022/11/28 03:30:48;;;;;;;1.15;1.05;;;6.80;99.90;;;;;;5055004;28;20226;-80
2022/11/28 03:33:17;;;;;;;0.50;0.40;;;6.80;99.90;;;;;;5055611;28;20183;-82
2022/11/28 03:35:51;;;;;;;3.80;1.40;;;6.80;99.90;;;;;;5054069;28;20244;-81
2022/11/28 03:38:22;;;;;;;1.45;1.13;;;6.80;99.90;;;;;;5055108;28;20179;-81
2022/11/28 03:40:54;;;;;;;1.15;1.02;;;6.80;99.90;;;;;;5055093;28;20210;-81
2022/11/28 03:43:26;;;;;;;0.80;0.70;;;6.80;99.90;;;;;;5054732;28;20217;-79
2022/11/28 03:45:59;;;;;;;0.50;0.40;;;6.80;99.90;;;;;;5054384;28;20189;-80
2022/11/28 03:48:30;;;;;;;0.50;0.50;;;6.80;99.90;;;;;;5057206;28;20295;-80
2022/11/28 03:51:03;;;;;;;2.97;1.13;;;6.80;99.90;;;;;;5059685;28;20769;-80
2022/11/28 03:53:36;;;;;;;1.30;0.90;;;6.80;99.90;;;;;;5059839;28;20183;-81
2022/11/28 03:56:09;;;;;;;1.23;0.98;;;6.70;99.90;;;;;;5057727;28;20293;-79
2022/11/28 03:58:40;;;;;;;1.45;1.35;;;6.70;99.90;;;;;;5058660;28;20206;-80
2022/11/28 04:01:14;;;;;;;1.55;1.05;;;6.70;99.90;;;;;;5058872;28;20281;-80
2022/11/28 04:03:50;;;;;;;0.57;0.55;;;6.70;99.90;;;;;;5058841;28;20204;-79
2022/11/28 04:06:22;;;;;;;2.15;0.70;;;6.70;99.90;;;;;;5059217;28;20761;-81
2022/11/28 04:08:58;;;;;;;1.05;0.70;;;6.70;99.90;;;;;;5058780;28;20194;-81
2022/11/28 04:11:30;;;;;;;1.20;1.10;;;6.70;99.90;;;;;;5059545;28;20181;-81
2022/11/28 04:14:02;;;;;;;0.50;0.40;;;6.70;99.90;;;;;;5057562;28;20564;-81
2022/11/28 04:16:34;;;;;;;1.38;1.27;;;6.70;99.90;;;;;;5056746;28;20240;-80
2022/11/28 04:19:06;;;;;;;1.35;1.05;;;6.70;99.90;;;;;;5057958;28;20233;-81
2022/11/28 04:21:41;;;;;;;0.70;0.70;;;6.70;99.90;;;;;;5064651;28;20280;-80
2022/11/28 04:24:12;;;;;;;0.50;0.40;;;6.70;99.90;;;;;;5072864;28;20192;-80
2022/11/28 04:26:45;;;;;;;0.88;0.88;;;6.70;99.90;;;;;;5068447;28;20190;-79
2022/11/28 04:29:15;;;;;;;0.52;0.52;;;6.70;99.90;;;;;;5059294;28;20648;-79
2022/11/28 04:31:44;;;;;;;0.60;0.60;;;6.70;99.90;;;;;;5059461;28;20189;-79
2022/11/28 04:34:16;;;;;;;2.55;1.95;;;6.70;99.90;;;;;;5069599;28;20195;-80
2022/11/28 04:36:46;;;;;;;2.55;2.35;;;6.70;99.90;;;;;;5065773;28;20277;-76
2022/11/28 04:39:15;;;;;;;0.50;0.40;;;6.70;99.90;;;;;;5058244;28;20583;-79
2022/11/28 04:41:47;;;;;;;0.55;0.55;;;6.70;99.90;;;;;;5059317;28;20286;-81
2022/11/28 04:44:18;;;;;;;0.80;0.80;;;6.70;99.90;;;;;;5057547;28;20624;-80
2022/11/28 04:46:50;;;;;;;1.10;1.10;;;6.70;99.90;;;;;;5070981;28;20193;-79
2022/11/28 04:49:17;;;;;;;1.52;1.25;;;6.70;99.90;;;;;;5077039;28;20301;-79
2022/11/28 04:51:52;;;;;;;2.65;2.45;;;6.70;99.90;;;;;;5076523;28;20192;-79
2022/11/28 04:54:25;;;;;;;0.60;0.60;;;6.70;99.90;;;;;;5076009;28;20263;-78
2022/11/28 04:56:57;;;;;;;0.50;0.50;;;6.70;99.90;;;;;;5077964;28;20186;-79
2022/11/28 04:59:26;;;;;;;0.98;0.98;;;6.70;99.90;;;;;;5076995;28;20221;-78
2022/11/28 05:01:57;;;;;;;0.50;0.40;;;6.70;99.90;;;;;;5077119;28;20273;-78
2022/11/28 05:04:24;;;;;;;0.82;0.70;;;6.70;99.90;;;;;;5076201;28;20645;-79
2022/11/28 05:07:01;;;;;;;0.50;0.40;;;6.70;99.90;;;;;;5076266;28;20186;-79
2022/11/28 05:09:28;;;;;;;0.60;0.50;;;6.70;99.90;;;;;;5077473;28;20232;-79
2022/11/28 05:11:54;;;;;;;2.97;2.25;;;6.70;99.90;;;;;;5082811;28;20202;-78
2022/11/28 05:14:22;;;;;;;1.40;1.30;;;6.70;99.90;;;;;;5084769;28;20262;-79
2022/11/28 05:16:49;;;;;;;1.15;1.15;;;6.70;99.90;;;;;;5082768;28;20190;-78
2022/11/28 05:19:16;;;;;;;2.50;2.25;;;6.60;99.90;;;;;;5084073;28;20236;-79
2022/11/28 05:21:43;;;;;;;2.55;1.17;;;6.60;99.90;;;;;;5085652;28;20221;-80
2022/11/28 05:24:12;;;;;;;1.88;0.63;;;6.50;99.90;;;;;;5088101;28;20197;-79
2022/11/28 05:26:39;;;;;;;2.47;1.88;;;6.50;99.90;;;;;;5085680;28;20262;-80
2022/11/28 05:29:06;;;;;;;3.42;3.13;;;6.50;99.90;;;;;;5087261;28;20798;-79
2022/11/28 05:31:33;;;;;;;0.50;0.50;;;6.50;99.90;;;;;;5086178;28;20273;-78
2022/11/28 05:34:00;;;;;;;0.70;0.68;;;6.50;99.90;;;;;;5083025;28;20232;-79
2022/11/28 05:36:26;;;;;;;0.63;0.63;;;6.50;99.90;;;;;;5086286;28;20193;-79
2022/11/28 05:38:53;;;;;;;5.50;0.77;;;6.50;99.90;;;;;;5088925;28;20305;-79
2022/11/28 05:41:23;;;;;;;2.35;2.00;;;6.50;99.90;;;;;;5089093;28;20726;-80
2022/11/28 05:43:50;;;;;;;0.70;0.70;;;6.50;99.90;;;;;;5088626;28;21018;-79
2022/11/28 05:46:17;;;;;;;2.25;1.52;;;6.50;99.90;;;;;;5085199;28;20221;-80
2022/11/28 05:48:44;;;;;;;0.50;0.50;;;6.40;99.90;;;;;;5085228;28;20250;-79
2022/11/28 05:51:11;;;;;;;0.60;0.55;;;6.50;99.90;;;;;;5084693;28;20213;-78
2022/11/28 05:53:38;;;;;;;2.25;2.08;;;6.50;99.90;;;;;;5088577;28;20194;-79
2022/11/28 05:56:09;;;;;;;0.77;0.77;;;6.50;99.90;;;;;;5084998;28;20301;-79
2022/11/28 05:58:37;;;;;;;0.60;0.60;;;6.50;99.90;;;;;;5093643;28;20186;-79
2022/11/28 06:01:11;;;;;;;0.50;0.40;;;6.50;99.90;;;;;;5087221;28;20233;-80
2022/11/28 06:03:38;;;;;;;1.63;1.52;;;6.50;99.90;;;;;;5080661;28;20280;-79
2022/11/28 06:06:09;;;;;;;1.77;1.02;;;6.50;99.90;;;;;;5076813;28;20200;-79
2022/11/28 06:08:36;;;;;;;0.82;0.82;;;6.50;99.90;;;;;;5077382;28;20268;-79
2022/11/28 06:11:03;;;;;;;4.70;1.45;;;6.50;99.90;;;;;;5077349;28;20228;-78
2022/11/28 06:13:29;;;;;;;0.50;0.40;;;6.50;99.90;;;;;;5077671;28;20193;-80
2022/11/28 06:15:58;;;;;;;0.70;0.70;;;6.50;99.90;;;;;;5075129;28;20562;-80
2022/11/28 06:18:24;;;;;;;2.53;2.42;;;6.50;99.90;;;;;;5076736;28;20255;-79
2022/11/28 06:20:51;;;;;;;0.50;0.50;;;6.50;99.90;;;;;;5077444;28;20221;-78
2022/11/28 06:23:18;;;;;;;0.50;0.50;;;6.50;99.90;;;;;;5077610;28;20194;-80
2022/11/28 06:25:45;;;;;;;12.38;1.30;;;6.50;99.90;;;;;;5076991;28;20198;-78
2022/11/28 06:28:12;;;;;;;0.50;0.40;;;6.50;99.90;;;;;;5077551;28;20192;-80
2022/11/28 06:30:38;;;;;;;0.50;0.40;;;6.50;99.90;;;;;;5078115;28;20251;-80
2022/11/28 06:33:06;;;;;;;1.67;1.60;;;6.50;99.90;;;;;;5077283;28;20193;-80
2022/11/28 06:35:33;;;;;;;1.67;1.58;;;6.50;99.90;;;;;;5077352;28;20606;-80
2022/11/28 06:38:00;;;;;;;0.50;0.40;;;6.50;99.90;;;;;;5077688;28;20196;-79
2022/11/28 06:40:27;;;;;;;3.35;0.80;;;6.50;99.90;;;;;;5077659;28;20282;-80
2022/11/28 06:42:54;;;;;;;0.68;0.68;;;6.50;99.90;;;;;;5076560;28;20205;-81
2022/11/28 06:45:21;;;;;;;1.60;0.98;;;6.50;99.90;;;;;;5076294;28;20241;-81
2022/11/28 06:47:48;;;;;;;1.00;0.90;;;6.50;99.90;;;;;;5077420;28;20220;-79
2022/11/28 06:50:16;;;;;;;0.50;0.50;;;6.50;99.90;;;;;;5076883;28;20225;-80
2022/11/28 06:52:43;;;;;;;0.50;0.40;;;6.50;99.90;;;;;;5076410;28;20288;-80
2022/11/28 06:55:10;;;;;;;0.50;0.50;;;6.50;99.90;;;;;;5075700;28;20694;-80
2022/11/28 06:57:37;;;;;;;0.70;0.70;;;6.50;99.90;;;;;;5075596;28;20655;-80
2022/11/28 07:00:05;;;;;;;2.90;2.80;;;6.50;99.90;;;;;;5076382;28;20217;-81
2022/11/28 07:02:32;;;;;;;1.75;1.65;;;6.50;99.90;;;;;;5075445;28;20276;-80
2022/11/28 07:04:59;;;;;;;0.50;0.40;;;6.60;99.90;;;;;;5075109;28;20296;-81
2022/11/28 07:07:27;;;;;;;3.22;2.05;;;6.60;99.90;;;;;;5064753;28;20564;-80
2022/11/28 07:09:54;;;;;;;0.80;0.80;;;6.60;99.90;;;;;;5054590;28;20220;-80
2022/11/28 07:12:21;;;;;;;1.17;1.08;;;6.60;99.90;;;;;;5054214;28;20648;-79
2022/11/28 07:14:48;;;;;;;1.40;1.40;;;6.60;99.90;;;;;;5059885;28;20233;-82
2022/11/28 07:17:14;;;;;;;2.10;1.95;;;6.60;99.90;;;;;;5059585;28;20273;-81
2022/11/28 07:19:41;;;;;;;1.25;1.02;;;6.60;99.90;;;;;;5056959;28;20226;-80
2022/11/28 07:22:10;;;;;;;1.05;0.90;;;6.60;99.90;;;;;;5060863;28;20682;-80
2022/11/28 07:24:39;;;;;;;3.35;3.00;;;6.60;99.90;;;;;;5074507;28;20217;-79
2022/11/28 07:27:05;;;;;;;1.33;1.33;;;6.70;99.90;;;;;;5074479;28;20197;-79
2022/11/28 07:29:35;;;;;;;0.60;0.60;;;6.70;99.90;;;;;;5074806;28;20217;-80
2022/11/28 07:32:03;;;;;;;1.05;0.60;;;6.70;99.90;;;;;;5069857;28;20209;-77
2022/11/28 07:34:29;;;;;;;7.40;3.72;;;6.70;99.90;;;;;;5054919;28;20203;-80
2022/11/28 07:36:56;;;;;;;0.80;0.80;;;6.80;99.90;;;;;;5054523;28;20258;-80
2022/11/28 07:39:23;;;;;;;1.05;1.05;;;6.80;99.90;;;;;;5053420;28;20221;-80
2022/11/28 07:41:51;;;;;;;1.90;1.75;;;6.90;99.90;;;;;;5055974;28;20273;-79
2022/11/28 07:44:18;;;;;;;0.50;0.40;;;6.90;99.90;;;;;;5072488;28;20204;-80
2022/11/28 07:46:46;;;;;;;1.05;0.95;;;6.90;99.90;;;;;;5071218;28;20275;-75
2022/11/28 07:49:13;;;;;;;0.93;0.93;;;7.00;99.90;;;;;;5060389;28;20297;-80
2022/11/28 07:51:41;;;;;;;1.17;1.15;;;7.00;99.90;;;;;;5073552;28;20265;-79
2022/11/28 07:54:08;;;;;;;0.60;0.60;;;7.00;99.90;;;;;;5082243;28;20196;-81
2022/11/28 07:56:37;;;;;;;3.00;2.80;;;7.10;99.90;;;;;;5070082;28;20611;-80
2022/11/28 07:59:06;;;;;;;1.13;1.00;;;7.10;99.90;;;;;;5076471;28;20658;-79
2022/11/28 08:01:35;;;;;;;0.50;0.50;;;7.10;99.90;;;;;;5076054;28;20633;-83
2022/11/28 08:04:04;;;;;;;1.55;1.48;;;7.20;99.90;;;;;;5073897;28;20559;-81
2022/11/28 08:06:35;;;;;;;12.25;3.22;;;7.20;99.90;;;;;;5074672;28;20199;-81
2022/11/28 08:09:02;;;;;;;2.13;1.98;;;7.20;99.90;;;;;;5074251;28;20245;-81
2022/11/28 08:11:30;;;;;;;1.95;1.23;;;7.20;99.90;;;;;;5073948;28;20296;-81
2022/11/28 08:13:57;;;;;;;1.08;0.95;;;7.20;99.90;;;;;;5053800;28;20187;-80
2022/11/28 08:16:27;;;;;;;0.98;0.70;;;7.20;99.90;;;;;;5052903;28;20262;-81
2022/11/28 08:18:55;;;;;;;0.50;0.50;;;7.20;99.90;;;;;;5054443;28;20345;-81
2022/11/28 08:21:24;;;;;;;1.67;1.58;;;7.30;99.90;;;;;;5060666;28;20292;-78
2022/11/28 08:23:53;;;;;;;0.80;0.80;;;7.30;99.90;;;;;;5074187;28;20201;-80
2022/11/28 08:26:23;;;;;;;1.15;1.05;;;7.40;99.90;;;;;;5066669;28;20254;-80
2022/11/28 08:28:52;;;;;;;0.60;0.50;;;7.40;99.90;;;;;;5074905;28;20286;-80
2022/11/28 08:31:21;;;;;;;0.60;0.60;;;7.40;99.90;;;;;;5075076;28;20709;-81
2022/11/28 08:33:54;;;;;;;0.80;0.80;;;7.40;99.90;;;;;;5075302;28;20277;-79
2022/11/28 08:36:22;;;;;;;3.90;1.67;;;7.40;99.90;;;;;;5078011;28;20293;-81
2022/11/28 08:38:49;;;;;;;0.50;0.50;;;7.50;99.90;;;;;;5089044;28;20258;-83
2022/11/28 08:41:18;;;;;;;2.08;1.05;;;7.50;99.90;;;;;;5095626;28;20225;-81
2022/11/28 08:43:45;;;;;;;1.52;1.42;;;7.50;99.90;;;;;;5095222;28;20221;-78
2022/11/28 08:46:13;;;;;;;0.50;0.40;;;7.50;99.90;;;;;;5087847;28;20625;-81
2022/11/28 08:48:41;;;;;;;0.60;0.60;;;7.40;99.90;;;;;;5077440;28;20185;-80
2022/11/28 08:51:13;;;;;;;0.60;0.52;;;7.40;99.90;;;;;;5077935;28;20218;-80
2022/11/28 08:53:39;;;;;;;1.88;1.77;;;7.50;99.90;;;;;;5077029;28;20190;-80
2022/11/28 08:56:07;;;;;;;0.80;0.60;;;7.50;99.90;;;;;;5076340;28;20289;-80
2022/11/28 08:58:35;;;;;;;0.50;0.50;;;7.60;99.90;;;;;;5076235;28;20560;-79
2022/11/28 09:01:01;;;;;;;0.88;0.88;;;7.60;99.90;;;;;;5069461;28;20186;-81
2022/11/28 09:03:28;;;;;;;2.65;2.45;;;7.60;99.90;;;;;;5074634;28;20193;-81
2022/11/28 09:06:00;;;;;;;1.25;0.60;;;7.60;99.90;;;;;;5067910;28;20567;-82
2022/11/28 09:08:28;;;;;;;0.50;0.40;;;7.60;99.90;;;;;;5059471;28;20193;-81
2022/11/28 09:10:55;;;;;;;3.30;2.38;;;7.60;99.90;;;;;;5060450;28;20710;-79
2022/11/28 09:13:22;;;;;;;1.80;1.70;;;7.60;99.90;;;;;;5067756;28;20186;-81
2022/11/28 09:15:49;;;;;;;4.75;1.58;;;7.70;99.90;;;;;;5074853;28;20190;-81
2022/11/28 09:18:16;;;;;;;5.32;1.75;;;7.70;99.90;;;;;;5076528;28;20192;-77
2022/11/28 09:20:44;;;;;;;1.58;1.58;;;7.60;99.90;;;;;;5076720;28;20214;-79
2022/11/28 09:23:11;;;;;;;0.50;0.40;;;7.70;99.90;;;;;;5075038;28;20194;-81
2022/11/28 09:25:39;;;;;;;1.55;1.42;;;7.70;99.90;;;;;;5057811;28;20195;-79
2022/11/28 09:28:06;;;;;;;0.63;0.63;;;7.70;99.90;;;;;;5064550;28;20193;-80
2022/11/28 09:30:33;;;;;;;0.60;0.60;;;7.70;99.90;;;;;;5073232;28;20707;-81
2022/11/28 09:33:00;;;;;;;2.00;1.38;;;7.70;99.90;;;;;;5070426;28;20274;-80
2022/11/28 09:35:27;;;;;;;1.95;1.35;;;7.70;99.90;;;;;;5057120;28;20209;-81
2022/11/28 09:37:54;;;;;;;1.02;0.90;;;7.70;99.90;;;;;;5061055;28;20198;-79
2022/11/28 09:40:28;;;;;;;3.70;2.08;;;7.60;99.90;;;;;;5076727;28;20216;-80
2022/11/28 09:42:58;;;;;;;1.00;0.85;;;7.60;99.90;;;;;;5076071;28;20193;-80
2022/11/28 09:45:25;;;;;;;1.15;0.85;;;7.50;99.90;;;;;;5076139;28;20189;-80
2022/11/28 09:47:56;;;;;;;1.27;1.23;;;7.60;99.90;;;;;;5076567;28;20188;-81
2022/11/28 09:50:25;;;;;;;2.05;1.70;;;7.50;99.90;;;;;;5077553;28;20305;-81
2022/11/28 09:53:00;;;;;;;4.32;1.25;;;7.50;99.90;;;;;;5076493;28;20234;-81
2022/11/28 09:55:35;;;;;;;0.80;0.80;;;7.40;99.90;;;;;;5081013;28;20200;-79
2022/11/28 09:58:10;;;;;;;1.77;1.67;;;7.40;99.90;;;;;;5094825;28;20182;-80
2022/11/28 10:00:41;;;;;;;0.50;0.50;;;7.40;99.90;;;;;;5065976;28;20213;-78
2022/11/28 10:03:25;;;;;;;0.50;0.40;;;7.40;99.90;;;;;;5057482;28;20183;-81
2022/11/28 10:06:00;;;;;;;1.50;1.40;;;7.40;99.90;;;;;;5055322;28;20187;-81
2022/11/28 10:08:37;;;;;;;0.50;0.40;;;7.40;99.90;;;;;;5065957;28;20196;-81
2022/11/28 10:11:13;;;;;;;2.05;0.85;;;7.30;99.90;;;;;;5069452;28;20217;-79
2022/11/28 10:13:50;;;;;;;6.57;2.63;;;7.30;99.90;;;;;;5075887;28;20196;-80
2022/11/28 10:16:24;;;;;;;3.50;3.00;;;7.30;99.90;;;;;;5076138;28;20174;-80
2022/11/28 10:18:55;;;;;;;1.33;1.23;;;7.40;99.90;;;;;;5065021;28;20202;-79
2022/11/28 10:21:28;;;;;;;2.38;1.80;;;7.40;99.90;;;;;;5057144;28;20712;-80
2022/11/28 10:23:58;;;;;;;2.45;0.98;;;7.40;99.90;;;;;;5059961;28;20190;-79
2022/11/28 10:26:34;;;;;;;4.97;1.88;;;7.30;99.90;;;;;;5077037;28;20320;-81
2022/11/28 10:29:11;;;;;;;0.50;0.40;;;7.30;99.90;;;;;;5070385;28;20222;-81
2022/11/28 10:31:41;;;;;;;1.00;1.00;;;7.40;99.90;;;;;;5055463;28;20209;-81
2022/11/28 10:34:16;;;;;;;1.65;1.45;;;7.40;99.90;;;;;;5054994;28;20198;-80
2022/11/28 10:36:55;;;;;;;2.80;2.30;;;7.40;99.90;;;;;;5055416;28;20197;-80
2022/11/28 10:39:22;;;;;;;2.47;0.73;;;7.40;99.90;;;;;;5065101;28;20214;-81
2022/11/28 10:42:11;;;;;;;0.50;0.50;;;7.40;99.90;;;;;;5073960;28;20192;-80
2022/11/28 10:44:59;;;;;;;0.73;0.73;;;7.40;99.90;;;;;;5074715;28;20540;-81
2022/11/28 10:47:44;;;;;;;1.88;1.77;;;7.50;99.90;;;;;;5075881;28;20198;-81
2022/11/28 10:50:18;;;;;;;5.18;2.15;;;7.50;99.90;;;;;;5075404;28;20216;-81
2022/11/28 10:52:51;;;;;;;0.68;0.68;;;7.50;99.90;;;;;;5075165;28;20213;-80
2022/11/28 10:55:27;;;;;;;3.53;3.25;;;7.60;99.90;;;;;;5074533;28;20204;-80
2022/11/28 10:58:03;;;;;;;2.22;1.58;;;7.60;99.90;;;;;;5074942;28;20670;-80
2022/11/28 11:00:32;;;;;;;2.80;1.70;;;7.60;99.90;;;;;;5074769;28;20221;-79
2022/11/28 11:03:02;;;;;;;3.45;3.20;;;7.50;99.90;;;;;;5075469;28;20194;-79
2022/11/28 11:05:31;;;;;;;14.45;9.50;;;7.50;99.90;;;;;;5074484;28;20194;-79
2022/11/28 11:08:02;;;;;;;0.70;0.52;;;7.60;99.90;;;;;;5070401;28;20202;-81
2022/11/28 11:10:33;;;;;;;0.70;0.70;;;7.70;99.90;;;;;;5062844;28;20210;-80
2022/11/28 11:13:00;;;;;;;0.50;0.40;;;7.70;99.90;;;;;;5055466;28;20210;-80
2022/11/28 11:15:32;;;;;;;0.50;0.50;;;7.70;99.90;;;;;;5054524;28;20302;-80
2022/11/28 11:18:04;;;;;;;0.50;0.47;;;7.70;99.90;;;;;;5054272;28;20194;-80
2022/11/28 11:20:36;;;;;;;0.50;0.40;;;7.70;99.90;;;;;;5054514;28;20747;-80
2022/11/28 11:23:12;;;;;;;6.57;4.55;;;7.70;99.90;;;;;;5054092;28;20185;-80
2022/11/28 11:25:47;;;;;;;2.05;1.48;;;7.80;99.90;;;;;;5054183;28;20628;-81
2022/11/28 11:28:29;;;;;;;0.50;0.40;;;7.80;99.90;;;;;;5054556;28;20236;-80
2022/11/28 11:31:02;;;;;;;1.15;1.15;;;7.70;99.90;;;;;;5054341;28;20218;-80
2022/11/28 11:33:34;;;;;;;2.90;1.45;;;7.70;99.90;;;;;;5054980;28;20616;-81
2022/11/28 11:36:03;;;;;;;1.00;1.00;;;7.70;99.90;;;;;;5054499;28;20274;-80
2022/11/28 11:38:33;;;;;;;1.67;1.58;;;7.70;99.90;;;;;;5055825;28;20190;-80
2022/11/28 11:41:20;;;;;;;5.60;3.25;;;7.80;99.90;;;;;;5059972;28;21290;-80
2022/11/28 11:43:47;;;;;;;1.20;1.10;;;7.70;99.90;;;;;;5053868;28;20194;-78
2022/11/28 11:46:16;;;;;;;2.15;2.05;;;7.70;99.90;;;;;;5053898;28;20203;-81
2022/11/28 11:48:45;;;;;;;0.80;0.80;;;7.70;99.90;;;;;;5054268;28;20199;-80
2022/11/28 11:51:23;;;;;;;3.92;2.13;;;7.70;99.90;;;;;;5054778;28;20198;-81
2022/11/28 11:54:04;;;;;;;0.50;0.50;;;7.70;99.90;;;;;;5054578;28;20289;-81
2022/11/28 11:56:35;;;;;;;0.52;0.50;;;7.70;99.90;;;;;;5054572;28;20246;-82
2022/11/28 11:59:06;;;;;;;0.80;0.80;;;7.70;99.90;;;;;;5054651;28;20293;-79
2022/11/28 12:01:36;;;;;;;0.88;0.88;;;7.70;99.90;;;;;;5055016;28;20198;-81
2022/11/28 12:04:07;;;;;;;14.20;1.95;;;7.70;99.90;;;;;;5063017;28;20285;-81
2022/11/28 12:06:38;;;;;;;0.50;0.40;;;7.70;99.90;;;;;;5074242;28;20247;-81
2022/11/28 12:09:15;;;;;;;1.40;1.10;;;7.70;99.90;;;;;;5070796;28;20217;-81
2022/11/28 12:11:46;;;;;;;0.50;0.40;;;7.70;99.90;;;;;;5061027;28;20209;-78
2022/11/28 12:14:26;;;;;;;2.15;2.05;;;7.70;99.90;;;;;;5057843;28;20359;-81
2022/11/28 12:17:06;;;;;;;0.60;0.50;;;7.70;99.90;;;;;;5058942;28;20198;-81
2022/11/28 12:19:40;;;;;;;3.13;2.80;;;7.60;99.90;;;;;;5057790;28;20290;-80
2022/11/28 12:22:17;;;;;;;0.70;0.70;;;7.60;99.90;;;;;;5058557;28;20265;-79
2022/11/28 12:24:56;;;;;;;0.50;0.50;;;7.60;99.90;;;;;;5057767;28;20179;-79
2022/11/28 12:27:40;;;;;;;0.98;0.98;;;7.60;99.90;;;;;;5058282;28;20747;-80
2022/11/28 12:30:24;;;;;;;1.25;1.20;;;7.60;99.90;;;;;;5073382;28;20582;-80
2022/11/28 12:33:03;;;;;;;2.67;1.95;;;7.70;99.90;;;;;;5078165;28;20220;-81
2022/11/28 12:35:38;;;;;;;2.35;1.55;;;7.70;99.90;;;;;;5078084;28;20178;-80
2022/11/28 12:38:20;;;;;;;0.50;0.40;;;7.70;99.90;;;;;;5073026;28;20277;-80
2022/11/28 12:41:04;;;;;;;1.65;1.48;;;7.70;99.90;;;;;;5068474;28;20575;-80
2022/11/28 12:43:45;;;;;;;2.05;1.85;;;7.70;99.90;;;;;;5077679;28;20185;-80
2022/11/28 12:46:20;;;;;;;1.77;1.70;;;7.60;99.90;;;;;;5077330;28;20198;-81
2022/11/28 12:49:02;;;;;;;6.03;2.20;;;7.70;99.90;;;;;;5078378;28;20181;-80
2022/11/28 12:51:41;;;;;;;1.38;1.27;;;7.70;99.90;;;;;;5078157;28;20194;-80
2022/11/28 12:54:32;;;;;;;0.50;0.50;;;7.70;99.90;;;;;;5077775;28;20182;-81
2022/11/28 12:57:06;;;;;;;1.40;1.25;;;7.70;99.90;;;;;;5077874;28;20280;-80
2022/11/28 12:59:40;;;;;;;37.33;3.80;;;7.60;99.90;;;;;;5079857;28;20587;-80
2022/11/28 13:02:29;;;;;;;2.65;2.47;;;7.60;99.90;;;;;;5077888;28;20174;-80
2022/11/28 13:05:29;;;;;;;1.05;0.95;;;7.70;99.90;;;;;;5076792;28;20249;-80
2022/11/28 13:08:16;;;;;;;0.70;0.70;;;7.70;99.90;;;;;;5073392;28;20284;-80
2022/11/28 13:10:48;;;;;;;0.50;0.40;;;7.70;99.90;;;;;;5069142;28;20241;-79
2022/11/28 13:13:19;;;;;;;2.53;1.98;;;7.70;99.90;;;;;;5072782;28;20198;-80
2022/11/28 13:15:56;;;;;;;2.58;2.47;;;7.70;99.90;;;;;;5065530;28;20189;-78
2022/11/28 13:18:34;;;;;;;0.88;0.88;;;7.80;99.90;;;;;;5056458;28;20273;-79